KNMI Weerbulletins

Hier vind u de KMNI verwachtingen en de waarnemingen

Bron: KNMI website
Laatste update op 12-04-2021 om 23:34
ZCZC
FBNL50 EHDB 121945
WEERBULLETIN VOOR DE LUCHTVAART
.
GELDIG VOOR: DE DAGLICHTPERIODE VAN DINSDAG 13 APRIL 2021.
.
SITUATIE: TUSSEN EEN HOGEDRUKGEBIED BOVEN DE BRITSE EILANDEN EN EEN
LAGEDRUKGEBIED BOVEN SCANDINAVIE VOERT EEN NOORDWESTELIJKE STROMING
MARITIEM POLAIRE LUCHT AAN. DE OPBOUW IS TUSSEN 07 EN 17.30 UTC
ONSTABIEL VAN OPBOUW TOT CA 5000 VT, IN HET NOORDEN EN OOSTEN TOT
BOVEN FL100.
.
SIGNIFICANT WEER: AANVANKELIJK IN HET NOORDEN EN VANAF DE TWEEDE
HELFT VAN OCHTEND OOK IN HET OOSTEN ENKELE GEISOLEERDE LICHTE TOT
MATIGE REGENBUIEN, MOGELIJK MET KORRELHAGEL.
.
WIND: IN HET BINNENLAND TOT 08 UTC WEST TOT ZUIDWEST 4-8 KN, ELDERS
NOORDWEST 6-12 KN, AAN ZEE EN BOVEN HET IJSSELMEER NOORDWEST 10-20
KN, IN HET NOORDELIJKE KUSTGEBIED IN DE OCHTEND 20-25 KN. IN DE
TWEEDE HELFT VAN DE OCHTEND BOVEN LAND OVERAL TOENEMEND NAAR
NOORDWEST 10-15 KN. AAN HET EINDE VAN DE PERIODE BOVEN LAND AFNEMEND
NAAR 6-11 KN, AAN DE KUST NAAR 8-15 KN.
.
BEWOLKING: IN DE OCHTEND VOORAL IN DE NOORDOOSTELIJKE HELFT BKN SC
2500-3500 VT EN VANAF 08 UTC IN HET HELE LAND ONTWIKKELING VAN
FEW/SCT CU 2000-3000 VT, TOPPEN TOT ONGEVEER 5000 VT. BIJ EEN BUI FEW
TCU/CB ROND 2000 VT, TOPPEN TOT ROND/BOVEN FL100.
.
ZICHT: MEER DAN 10 KM, IN EEN BUI 5-8 KM, IN EEN HAGELBUI MOGELIJK
3-5 KM.
.
NULGRADEN NIVEAU: ROND 2000 VT. AANVANKELIJK LOKAAL AAN DE GROND.
.
THERMIEK: VANAF 07 UTC ZWAK, SPOEDIG MATIG, LOKAAL DOOR BUIEN
VERSTOORD EN IN HET NOORDEN LOKAAL VERWAAID. ROND 17.30 UITDOVEND.
.
DAGLICHTPERIODE: 04.33 TOT 18.50 UTC.=
NNNN
Bron: KNMI website
Laatste update op 12-04-2021 om 23:34
ZCZC
FT121700 EHLE     LELYSTAD/LELYSTAD   NLD   -3 m.
TAF EHLE 121659Z 1218/1324 26006KT 9999 FEW030
    BECMG 1306/1309 30012KT
    BECMG 1317/1320 VRB03KT=
ZCZC
FT121700 EHAM     AMSTERDAM/SCHIPHOL   NLD   -3 m.
TAF EHAM 121659Z 1218/1324 29009KT 9999 FEW030=
ZCZC
FT121700 EHRD     ROTTERDAM/THE HAGUE AIRPORT   NLD   -5 m.
TAF EHRD 121659Z 1218/1324 29008KT 9999 FEW030=
ZCZC
FT121700 EHGG     GRONINGEN/EELDE   NLD   5 m.
TAF EHGG 121659Z 1218/1324 27009KT 9999 SCT025
    PROB40 TEMPO 1218/1316 30015KT 6000 SHRA FEW018CB BKN020
    BECMG 1306/1309 31012KT
    BECMG 1317/1320 27006KT=
ZCZC
FT121700 EHBK     MAASTRICHT/MAASTRICHT-AACHEN   NLD   114 m.
TAF EHBK 121659Z 1218/1324 30004KT CAVOK
    PROB30 TEMPO 1309/1317 33010KT 7000 -SHRA FEW020CB BKN030=
ZCZC
FT121700 EHEH     EINDHOVEN/EINDHOVEN   NLD   22 m.
TAF EHEH 121744Z 1218/1324 29008KT CAVOK
    PROB40 TEMPO 1309/1314 4500 -SHRA SCT018CB
    BECMG 1320/1322 VRB02KT=
ZCZC
FC122100 EHKD     DE KOOY/DE KOOY   NLD   1 m.
TAF AMD EHKD 121940Z 1220/1305 30012KT 9999 FEW018 SCT020
    TEMPO 1220/1223 31010G20KT 3500 SHRA FEW009 SCT014 SCT018CB
    PROB30 TEMPO 1223/1303 4500 -SHRA SCT020CB=
ZCZC
FC122100 EHGR     GILZE-RIJEN/GILZE-RIJEN   NLD   14 m.
TAF EHGR 122100Z NIL=
ZCZC
FC122100 EHLW     LEEUWARDEN/LEEUWARDEN   NLD   1 m.
TAF EHLW 122028Z 1221/1309 28010KT 9999 SCT030
    PROB40 TEMPO 1221/1303 30012G22KT 4000 -SHRA SCT018CB
    TEMPO 1306/1309 4500 -SHRA SCT015CB=
ZCZC
FC122100 EHVK     VOLKEL/VOLKEL   NLD   21 m.
TAF EHVK 122031Z 1221/1309 27004KT CAVOK=
ZCZC
FC122100 EHWO     WOENSDRECHT/WOENSDRECHT   NLD   19 m.
TAF EHWO 122100Z NIL=
Bron: KNMI website
Laatste update op 12-04-2021 om 23:34
ZCZC
SA122055 EHFS     VLISSINGEN AWS   NLD   8 m.
METAR EHFS 122055Z AUTO 30003KT 270V340 9999 NCD 04/M02 Q1031=
ZCZC
SA122055 EHSG     BSA   NLD   43 m.
METAR EHSG 122055Z AUTO 31008KT 290V350 //// // FEW030/// 06/M01
Q1031 RE//=
ZCZC
SA122125 EHKD     DE KOOY/DE KOOY   NLD   1 m.
METAR EHKD 122125Z AUTO 30002KT 9999 FEW026 03/01 Q1029 BLU=
ZCZC
SA122125 EHFD     F3-FB-1   NLD   50 m.
METAR EHFD 122125Z AUTO /////KT 9999 NCD 06/01 Q1025=
ZCZC
SA122125 EHAM     AMSTERDAM/SCHIPHOL   NLD   -3 m.
METAR EHAM 122125Z 26005KT 9999 FEW025 02/M00 Q1030 NOSIG=
ZCZC
SA122125 EHVL     VLIELAND   NLD   10 m.
METAR EHVL 122125Z AUTO 30017KT 9999 FEW018CB SCT023 BKN028 05/01
Q1028 WHT=
ZCZC
SA122125 EHJR     K13-A   NLD   37 m.
METAR EHJR 122125Z AUTO 32017KT //// // ///////// 05/M00 Q1030 RE//
W///H15=
ZCZC
SA122125 EHLE     LELYSTAD/LELYSTAD   NLD   -3 m.
METAR EHLE 122125Z AUTO 26006KT 9999 NCD 01/00 Q1029=
ZCZC
SA122125 EHLW     LEEUWARDEN/LEEUWARDEN   NLD   1 m.
METAR EHLW 122125Z AUTO 29010KT 9999 SCT016 BKN020 BKN024 04/01 Q1028
 WHT=
ZCZC
SA122125 EHDL     ARNHEM/DEELEN   NLD   48 m.
METAR EHDL 122125Z AUTO 26003KT 230V300 9999 NCD 00/M03 Q1029 BLU=
ZCZC
SA122125 EHGG     GRONINGEN/EELDE   NLD   5 m.
METAR EHGG 122125Z AUTO 24007KT 9999 FEW024 BKN039 OVC043 02/00 Q1027
TEMPO 7000 -SHRA FEW018CB=
ZCZC
SA122125 EHSC     LICHTEILAND GOEREE   NLD   22 m.
METAR EHSC 122125Z AUTO 34012KT 9999 ///////// 05/00 Q1030 W07/H11=
ZCZC
SA122125 EHSA     EURO PLATFORM   NLD   19 m.
METAR EHSA 122125Z AUTO 32011KT 9999 ///////// 05/00 Q1031 W08/H12=
ZCZC
SA122125 EHWO     WOENSDRECHT/WOENSDRECHT   NLD   19 m.
METAR EHWO 122125Z AUTO 23002KT 9999 NCD M00/M02 Q1030 BLU=
ZCZC
SA122125 EHRD     ROTTERDAM/THE HAGUE AIRPORT   NLD   -5 m.
METAR EHRD 122125Z AUTO 25004KT 9999 FEW025 02/00 Q1030 NOSIG=
ZCZC
SA122125 EHGR     GILZE-RIJEN/GILZE-RIJEN   NLD   14 m.
METAR EHGR 122125Z AUTO 24004KT 9999 NCD 02/M02 Q1030 BLU=
ZCZC
SA122125 EHEH     EINDHOVEN/EINDHOVEN   NLD   22 m.
METAR EHEH 122125Z AUTO 27003KT 9999 NCD M00/M02 Q1030
BLU NOSIG=
ZCZC
SA122125 EHVK     VOLKEL/VOLKEL   NLD   21 m.
METAR EHVK 122125Z AUTO 26003KT 9999 NCD 01/M02 Q1030 BLU=
ZCZC
SA122125 EHBK     MAASTRICHT/MAASTRICHT-AACHEN   NLD   114 m.
METAR EHBK 122125Z AUTO 22006KT 9999 NCD 00/M01 Q1030 NOSIG=
ZCZC
SA122125 EHFZ     F16-A   NLD   43 m.
METAR EHFZ 122125Z NIL=
ZCZC
SA122125 EHKV     K14-FA-1C   NLD   41 m.
METAR EHKV 122125Z AUTO 33018KT 9999 SCT025 SCT030 05/M01 Q1029=
ZCZC
SA122125 EHMG     L9-FF-1   NLD   44 m.
METAR EHMG 122125Z AUTO 30020KT 9999 FEW010 FEW015CB SCT020 BKN038
05/02 Q1028=
ZCZC
SA122125 EHMA     AWG-1   NLD   40 m.
METAR EHMA 122125Z AUTO 29022KT 9999 FEW015 SCT018 BKN022 05/02
Q1026=
ZCZC
SA122125 EHDV     D15-FA-1   NLD   42 m.
METAR EHDV 122125Z AUTO 31022KT 9999 FEW019/// 06/01 Q1028=
ZCZC
SA122125 EHAK     A12-CPP   NLD   48 m.
METAR EHAK 122125Z AUTO 32025KT 9999 NSC 06/00 Q1025=
ZCZC
SA122125 EHQE     HOORN-A   NLD   50 m.
METAR EHQE 122125Z AUTO 27019KT 9999 FEW016 05/01 Q1029=
ZCZC
SA122125 EHJA     J6-A   NLD   45 m.
METAR EHJA 122125Z AUTO 31020KT 9999 FEW023/// 05/00 Q1028=
ZCZC
SA122125 EHPG     P11-B   NLD   41 m.
METAR EHPG 122125Z AUTO 34010KT 260V040 9999 FEW021 06/01 Q1030=
ZCZC
SA122125 EHHW     BUITENGAATS/BG-OHVS2      42 m.
METAR EHHW 122125Z AUTO 32019KT 9999 FEW014/// BKN017/// BKN020///
05/02 Q1026=